Data for 12/18/2014

Time Sea-Level Adjusted Pressure Absolute Pressure Temperature Relative Humidity Dew Point   
(mb) (inHg) (mb) (inHg) (C) (F) (%) (C) (F)
00:05 1016 30 846 24.98 -5.1 22.8 74 -9.1 15.6
00:10 1016 30 846 24.98 -5 23 73 -9.1 15.6
00:15 1017 30.03 846 24.98 -5 23.1 73 -9 15.8
00:20 1017 30.03 846 24.98 -4.9 23.1 74 -9 15.8
00:25 1017 30.03 846 24.98 -5.3 22.5 75 -9.1 15.6
00:30 1017 30.03 846 24.98 -5.4 22.4 75 -9.2 15.4
00:35 1017 30.03 846 24.98 -5.4 22.2 75 -9.2 15.4
00:40 1017 30.03 846 24.98 -5.4 22.3 75 -9.1 15.6
00:45 1017 30.03 846 24.98 -5.5 22 75 -9.2 15.4
00:50 1016 30 846 24.98 -5.5 22 75 -9.3 15.3
00:55 1016 30 846 24.98 -5.6 21.8 75 -9.3 15.2
01:00 1016 30 846 24.98 -5.8 21.5 76 -9.4 15.1
01:05 1016 30 846 24.98 -6.4 20.5 79 -9.4 15.1
01:10 1016 30 846 24.98 -5.8 21.6 76 -9.5 15
01:15 1016 30 846 24.98 -5.4 22.3 75 -9.1 15.7
01:20 1016 30 846 24.98 -5.2 22.7 75 -9 15.8
01:25 1016 30 846 24.98 -5.5 22.1 76 -9.1 15.6
01:30 1016 30 846 24.98 -5.7 21.7 77 -9.1 15.6
01:35 1016 30 846 24.98 -6.1 21 79 -9.2 15.4
01:40 1016 30 846 24.98 -6 21.2 78 -9.2 15.4
01:45 1016 30 846 24.98 -5.2 22.7 75 -8.9 16
01:50 1016 30 846 24.98 -5.3 22.5 76 -8.9 16
01:55 1016 30 846 24.98 -5.9 21.3 78 -9.2 15.4
02:00 1016 30 846 24.98 -5.7 21.8 75 -9.4 15.1
02:05 1016 30 846 24.98 -5.3 22.5 77 -8.8 16.2
02:10 1016 30 846 24.98 -4.8 23.3 72 -9.1 15.6
02:15 1016 30 846 24.98 -4.4 24.2 70 -9.1 15.7
02:20 1016 30 846 24.98 -4.7 23.6 71 -9.2 15.4
02:25 1016 30 846 24.98 -5.1 22.7 73 -9.3 15.2
02:30 1016 30 846 24.98 -5.4 22.2 73 -9.5 14.8
02:35 1016 30 846 24.98 -5.4 22.3 73 -9.5 14.9
02:40 1016 30 846 24.98 -5.5 22.1 73 -9.6 14.8
02:45 1016 30 846 24.98 -5.7 21.8 74 -9.6 14.7
02:50 1016 30 846 24.98 -6.4 20.5 77 -9.8 14.4
02:55 1016 30 846 24.98 -6.6 20.1 78 -9.8 14.4
03:00 1016 30 846 24.98 -6.6 20.1 78 -9.9 14.1
03:05 1016 30 846 24.98 -6.9 19.7 80 -9.7 14.5
03:10 1017 30.03 846 24.98 -6.9 19.6 80 -9.8 14.3
03:15 1017 30.03 846 24.98 -6.2 20.8 77 -9.6 14.7
03:20 1017 30.03 846 24.98 -5.8 21.5 75 -9.5 14.9
03:25 1017 30.03 846 24.98 -6.3 20.7 78 -9.5 14.8
03:30 1017 30.03 846 24.98 -6.4 20.6 78 -9.6 14.7
03:35 1017 30.03 846 24.98 -6.2 20.8 77 -9.6 14.7
03:40 1017 30.03 846 24.98 -6.4 20.6 78 -9.5 14.8
03:45 1017 30.03 846 24.98 -5.9 21.4 75 -9.5 14.8
03:50 1017 30.03 846 24.98 -5.5 22.2 77 -8.9 16
03:55 1017 30.03 846 24.98 -5.6 22 76 -9.1 15.7
04:00 1017 30.03 846 24.98 -5.9 21.5 78 -9.1 15.5
04:05 1017 30.03 846 24.98 -6.2 20.9 80 -9 15.7
04:10 1017 30.03 846 24.98 -6.1 20.9 79 -9.1 15.5
04:15 1017 30.03 846 24.98 -6.3 20.7 79 -9.3 15.2
04:20 1017 30.03 846 24.98 -6 21.2 78 -9.2 15.5
04:25 1017 30.03 846 24.98 -6 21.1 78 -9.3 15.3
04:30 1017 30.03 846 24.98 -6.3 20.6 79 -9.4 15.1
04:35 1017 30.03 846 24.98 -6.7 20 81 -9.4 15.1
04:40 1017 30.03 846 24.98 -6.1 21 78 -9.4 15
04:45 1017 30.03 846 24.98 -5.6 21.9 73 -9.8 14.4
04:50 1017 30.03 846 24.98 -6 21.2 77 -9.4 15
04:55 1017 30.03 846 24.98 -6 21.1 77 -9.5 14.9
05:00 1017 30.03 846 24.98 -5.8 21.6 75 -9.6 14.7
05:05 1016 30 846 24.98 -6.2 20.8 75 -9.9 14.2
05:10 1016 30 846 24.98 -6.9 19.6 79 -10 14
05:15 1017 30.03 846 24.98 -7 19.4 79 -10.1 13.8
05:20 1017 30.03 846 24.98 -6.9 19.5 78 -10.1 13.9
05:25 1017 30.03 846 24.98 -6.5 20.3 77 -9.9 14.2
05:30 1017 30.03 846 24.98 -6.1 21 77 -9.5 14.8
05:35 1017 30.03 846 24.98 -5.8 21.6 75 -9.5 14.9
05:40 1017 30.03 846 24.98 -5.6 21.8 74 -9.6 14.7
05:45 1017 30.03 846 24.98 -5.9 21.4 75 -9.6 14.6
05:50 1017 30.03 846 24.98 -6 21.2 75 -9.7 14.5
05:55 1017 30.03 846 24.98 -5.9 21.4 74 -9.8 14.4
06:00 1017 30.03 846 24.98 -5.5 22.1 73 -9.6 14.7
06:05 1017 30.03 846 24.98 -4.9 23.1 71 -9.4 15.1
06:10 1017 30.03 846 24.98 -4.5 23.9 69 -9.4 15.2
06:15 1017 30.03 846 24.98 -4.4 24.1 69 -9.2 15.4
06:20 1017 30.03 846 24.98 -4.9 23.1 72 -9.2 15.4
06:25 1017 30.03 846 24.98 -5.4 22.3 74 -9.4 15.1
06:30 1017 30.03 846 24.98 -5.6 21.8 75 -9.5 15
06:35 1017 30.03 846 24.98 -5.6 21.9 73 -9.8 14.4
06:40 1017 30.03 846 24.98 -5.8 21.5 74 -9.7 14.5
06:45 1017 30.03 846 24.98 -6.4 20.5 77 -9.8 14.3
06:50 1017 30.03 846 24.98 -6.6 20.1 78 -9.9 14.2
06:55 1017 30.03 846 24.98 -6.9 19.5 79 -10 14
07:00 1017 30.03 847 25.01 -7 19.5 79 -9.9 14.1
07:05 1017 30.03 847 25.01 -7 19.4 80 -9.9 14.1
07:10 1017 30.03 847 25.01 -6.8 19.7 79 -9.9 14.1
07:15 1017 30.03 847 25.01 -6.6 20.1 78 -9.8 14.3
07:20 1017 30.03 847 25.01 -6.4 20.4 79 -9.6 14.8
07:25 1017 30.03 847 25.01 -6.2 20.8 77 -9.6 14.8
07:30 1017 30.03 847 25.01 -6.3 20.7 78 -9.5 14.8
07:35 1018 30.06 847 25.01 -6.3 20.7 77 -9.7 14.5
07:40 1018 30.06 847 25.01 -6.7 20 78 -9.9 14.1
07:45 1018 30.06 847 25.01 -6.8 19.7 78 -10 14
07:50 1018 30.06 847 25.01 -6.7 20 77 -10 13.9
07:55 1018 30.06 847 25.01 -6.6 20.1 78 -9.8 14.3
08:00 1018 30.06 847 25.01 -6.6 20.1 79 -9.7 14.6
08:05 1018 30.06 847 25.01 -6.6 20.1 79 -9.7 14.6
08:10 1018 30.06 847 25.01 -6.5 20.3 79 -9.6 14.8
08:15 1018 30.06 847 25.01 -6.3 20.7 79 -9.4 15.1
08:20 1018 30.06 847 25.01 -6.1 21 78 -9.3 15.2
08:25 1018 30.06 847 25.01 -5.9 21.3 78 -9.2 15.5
08:30 1018 30.06 847 25.01 -6 21.2 79 -9.2 15.5
08:35 1018 30.06 847 25.01 -5.9 21.3 78 -9.1 15.5
08:40 1018 30.06 847 25.01 -5.6 21.9 75 -9.3 15.3
08:45 1017 30.03 847 25.01 -5.5 22.2 76 -9.1 15.6
08:50 1017 30.03 847 25.01 -5.5 22.1 75 -9.2 15.4
08:55 1017 30.03 847 25.01 -5.2 22.7 74 -9.1 15.6
09:00 1017 30.03 847 25.01 -5.1 22.7 74 -9 15.7
09:05 1017 30.03 847 25.01 -5.2 22.7 74 -9.1 15.7
09:10 1017 30.03 847 25.01 -5.2 22.7 74 -9.1 15.7
09:15 1017 30.03 847 25.01 -5.4 22.3 76 -9 15.7
09:20 1017 30.03 847 25.01 -5.5 22.1 76 -9.1 15.6
09:25 1017 30.03 847 25.01 -5.4 22.2 76 -9 15.7
09:30 1017 30.03 847 25.01 -5.2 22.7 75 -8.9 15.9
09:35 1017 30.03 847 25.01 -4.9 23.2 74 -8.9 16
09:40 1018 30.06 847 25.01 -4.6 23.7 73 -8.7 16.3
09:45 1018 30.06 847 25.01 -4.4 24.1 72 -8.7 16.4
09:50 1018 30.06 847 25.01 -4.2 24.4 71 -8.7 16.4
09:55 1018 30.06 847 25.01 -4.1 24.7 70 -8.7 16.4
10:00 1018 30.06 847 25.01 -4 24.9 70 -8.6 16.5
10:05 1018 30.06 847 25.01 -3.8 25.1 69 -8.6 16.5
10:10 1018 30.06 847 25.01 -3.6 25.4 68 -8.6 16.4
10:15 1018 30.06 847 25.01 -3.1 26.4 65 -8.7 16.4
10:20 1018 30.06 847 25.01 -2.1 28.1 62 -8.4 16.9
10:25 1018 30.06 847 25.01 -2 28.4 62 -8.3 17
10:30 1018 30.06 847 25.01 -2.1 28.3 64 -7.9 17.7
10:35 1018 30.06 847 25.01 -3.1 26.5 68 -8.2 17.3
10:40 1018 30.06 847 25.01 -3.3 26 70 -8.1 17.4
10:45 1018 30.06 847 25.01 -3 26.6 67 -8.2 17.3
10:50 1018 30.06 847 25.01 -2.8 26.9 68 -7.9 17.8
10:55 1018 30.06 847 25.01 -2.5 27.5 66 -8.1 17.5
11:00 1018 30.06 847 25.01 -2.1 28.2 65 -7.8 18
11:05 1018 30.06 847 25.01 -2 28.4 66 -7.6 18.3
11:10 1018 30.06 847 25.01 -2.4 27.6 67 -7.7 18.1
11:15 1018 30.06 847 25.01 -2.5 27.4 68 -7.7 18.1
11:20 1018 30.06 847 25.01 -2.3 27.9 66 -7.9 17.8
11:25 1018 30.06 847 25.01 -1.3 29.7 60 -8.1 17.5
11:30 1018 30.06 847 25.01 -0.9 30.3 61 -7.5 18.4
11:35 1018 30.06 847 25.01 -1 30.3 60 -7.8 18
11:40 1018 30.06 847 25.01 -0.8 30.6 59 -7.9 17.9
11:45 1018 30.06 847 25.01 -0.4 31.3 58 -7.8 18
11:50 1018 30.06 847 25.01 -0.3 31.5 58 -7.6 18.4
11:55 1018 30.06 847 25.01 -0.2 31.6 58 -7.4 18.6
12:00 1018 30.06 847 25.01 0.1 32.2 55 -7.9 17.8
12:05 1018 30.06 847 25.01 0.5 32.8 54 -7.9 17.8
12:10 1018 30.06 847 25.01 0.8 33.5 54 -7.5 18.4
12:15 1018 30.06 847 25.01 0.7 33.3 53 -7.8 18
12:20 1018 30.06 847 25.01 1 33.8 52 -7.7 18.1
12:25 1018 30.06 847 25.01 0.5 32.9 54 -7.8 18
12:30 1018 30.06 847 25.01 0.9 33.5 54 -7.4 18.7
12:35 1018 30.06 847 25.01 1.1 33.9 52 -7.7 18.1
12:40 1018 30.06 847 25.01 1.1 34.1 54 -7.1 19.2
12:45 1018 30.06 847 25.01 0.7 33.3 57 -6.9 19.5
12:50 1018 30.06 847 25.01 0.4 32.7 55 -7.7 18.1
12:55 1018 30.06 847 25.01 0.3 32.6 53 -8.3 17.1
13:00 1018 30.06 847 25.01 0.3 32.6 53 -8.1 17.4
13:05 1018 30.06 847 25.01 0.1 32.2 56 -7.7 18.2
13:10 1018 30.06 847 25.01 0 32.1 54 -8.2 17.2
13:15 1018 30.06 847 25.01 0.3 32.5 53 -8.3 17
13:20 1017 30.03 847 25.01 0.4 32.7 53 -8.2 17.3
13:25 1017 30.03 847 25.01 1 33.8 50 -8.3 17
13:30 1017 30.03 847 25.01 1.1 34 50 -8.1 17.4
13:35 1017 30.03 847 25.01 1.3 34.3 50 -8 17.6
13:40 1017 30.03 847 25.01 1.1 34.1 50 -8.1 17.4
13:45 1017 30.03 846 24.98 1.3 34.4 50 -7.9 17.8
13:50 1017 30.03 846 24.98 1.3 34.4 51 -7.7 18.1
13:55 1017 30.03 846 24.98 1.5 34.8 51 -7.4 18.6
14:00 1017 30.03 846 24.98 1.7 35 53 -6.9 19.5
14:05 1017 30.03 846 24.98 2 35.6 52 -6.7 19.9
14:10 1017 30.03 846 24.98 2.5 36.5 53 -6.2 20.8
14:15 1017 30.03 846 24.98 2.5 36.6 53 -6.2 20.9
14:20 1017 30.03 846 24.98 1.7 35.1 56 -6 21.2
14:25 1017 30.03 846 24.98 1.5 34.8 56 -6.4 20.5
14:30 1017 30.03 846 24.98 1.6 34.9 57 -6.1 21.1
14:35 1017 30.03 846 24.98 1.2 34.1 59 -6.1 21.1
14:40 1017 30.03 846 24.98 1.6 34.9 54 -6.7 20
14:45 1017 30.03 846 24.98 2.7 36.9 52 -6.2 20.8
14:50 1017 30.03 846 24.98 2.8 37 51 -6.3 20.7
14:55 1017 30.03 846 24.98 2.9 37.2 51 -6.4 20.5
15:00 1017 30.03 846 24.98 3.2 37.8 51 -6 21.2
15:05 1017 30.03 846 24.98 3 37.3 50 -6.3 20.6
15:10 1017 30.03 846 24.98 3 37.5 52 -5.9 21.3
15:15 1017 30.03 846 24.98 2.6 36.7 54 -5.8 21.6
15:20 1017 30.03 846 24.98 2.7 36.9 52 -6.1 21.1
15:25 1017 30.03 846 24.98 2.8 37.1 54 -5.6 21.9
15:30 1017 30.03 846 24.98 2.6 36.7 54 -5.7 21.7
15:35 1017 30.03 846 24.98 2.1 35.8 57 -5.6 21.9
15:40 1017 30.03 846 24.98 1.7 35.1 57 -6 21.2
15:45 1017 30.03 846 24.98 1.6 34.9 57 -6 21.2
15:50 1017 30.03 846 24.98 0.7 33.2 61 -6.1 21.1
15:55 1017 30.03 846 24.98 -0.1 31.8 63 -6.3 20.7
16:00 1017 30.03 846 24.98 -0.2 31.7 63 -6.5 20.4
16:05 1017 30.03 846 24.98 -0.2 31.6 61 -6.8 19.7
16:10 1017 30.03 846 24.98 -0.3 31.4 62 -6.8 19.8
16:15 1017 30.03 846 24.98 -0.4 31.3 62 -6.8 19.8
16:20 1017 30.03 846 24.98 -0.3 31.4 61 -6.9 19.6
16:25 1017 30.03 846 24.98 -0.3 31.4 63 -6.6 20.1
16:30 1017 30.03 846 24.98 -0.2 31.6 62 -6.5 20.3
16:35 1017 30.03 846 24.98 -0.1 31.7 66 -5.8 21.5
16:40 1017 30.03 846 24.98 -0.6 30.8 68 -5.8 21.5
16:45 1017 30.03 846 24.98 -0.9 30.4 69 -5.8 21.5
16:50 1017 30.03 846 24.98 -0.9 30.3 67 -6.2 20.8
16:55 1017 30.03 847 25.01 -0.8 30.5 68 -6.1 21.1
17:00 1017 30.03 847 25.01 -0.8 30.5 69 -5.8 21.5
17:05 1017 30.03 847 25.01 -0.7 30.8 68 -5.8 21.5
17:10 1017 30.03 847 25.01 -0.6 30.9 69 -5.6 21.8
17:15 1017 30.03 846 24.98 -0.8 30.6 69 -5.7 21.7
17:20 1017 30.03 847 25.01 -0.9 30.4 71 -5.5 22.1
17:25 1017 30.03 847 25.01 -0.9 30.5 71 -5.4 22.2
17:30 1017 30.03 846 24.98 -1.2 29.9 74 -5.2 22.7
17:35 1017 30.03 846 24.98 -1.4 29.5 74 -5.5 22.2
17:40 1017 30.03 846 24.98 -1.3 29.6 74 -5.3 22.4
17:45 1017 30.03 846 24.98 -1.3 29.6 75 -5.3 22.5
17:50 1017 30.03 846 24.98 -1.2 29.8 73 -5.4 22.2
17:55 1017 30.03 846 24.98 -1.1 30 71 -5.7 21.8
18:00 1017 30.03 846 24.98 -1 30.2 70 -5.8 21.6
18:05 1017 30.03 846 24.98 -0.9 30.3 69 -5.9 21.3
18:10 1017 30.03 846 24.98 -0.9 30.5 70 -5.7 21.8
18:15 1017 30.03 846 24.98 -0.8 30.5 71 -5.5 22.1
18:20 1017 30.03 846 24.98 -0.9 30.5 71 -5.4 22.2
18:25 1017 30.03 846 24.98 -0.9 30.4 72 -5.3 22.5
18:30 1017 30.03 846 24.98 -0.9 30.5 73 -5.2 22.7
18:35 1017 30.03 846 24.98 -0.8 30.6 72 -5.2 22.7
18:40 1017 30.03 846 24.98 -0.6 30.8 70 -5.4 22.2
18:45 1017 30.03 846 24.98 -0.6 30.9 72 -5 23
18:50 1017 30.03 846 24.98 -0.7 30.8 71 -5.2 22.6
18:55 1017 30.03 846 24.98 -0.5 31.1 72 -5 23
19:00 1017 30.03 846 24.98 -0.5 31.2 72 -5 23
19:05 1017 30.03 846 24.98 -0.4 31.3 71 -5 23
19:10 1017 30.03 846 24.98 -0.3 31.4 70 -5.1 22.9
19:15 1017 30.03 846 24.98 -0.2 31.6 70 -5 23
19:20 1017 30.03 846 24.98 -0.2 31.6 71 -4.8 23.4
19:25 1017 30.03 846 24.98 -0.2 31.6 72 -4.7 23.6
19:30 1017 30.03 846 24.98 -0.2 31.7 72 -4.7 23.6
19:35 1017 30.03 846 24.98 0 32 71 -4.7 23.5
19:40 1017 30.03 846 24.98 0.1 32.2 70 -4.6 23.7
19:45 1017 30.03 847 25.01 0.2 32.4 67 -5.1 22.8
19:50 1017 30.03 846 24.98 0.5 32.8 68 -4.7 23.5
19:55 1017 30.03 846 24.98 0.3 32.5 70 -4.7 23.6
20:00 1017 30.03 846 24.98 0.4 32.7 68 -4.9 23.1
20:05 1017 30.03 846 24.98 0.4 32.7 69 -4.6 23.7
20:10 1017 30.03 846 24.98 0.3 32.5 69 -4.7 23.6
20:15 1017 30.03 846 24.98 0.3 32.5 70 -4.5 23.9
20:20 1017 30.03 846 24.98 0.3 32.5 71 -4.4 24
20:25 1017 30.03 847 25.01 0.2 32.3 72 -4.2 24.4
20:30 1017 30.03 847 25.01 0.1 32.1 72 -4.4 24
20:35 1017 30.03 847 25.01 0.1 32.2 71 -4.5 23.9
20:40 1017 30.03 847 25.01 0.2 32.4 70 -4.6 23.8
20:45 1017 30.03 847 25.01 0.3 32.5 71 -4.4 24
20:50 1017 30.03 847 25.01 0.3 32.5 72 -4.2 24.4
20:55 1017 30.03 847 25.01 0.3 32.6 71 -4.3 24.3
21:00 1017 30.03 847 25.01 0.4 32.8 71 -4.1 24.5
21:05 1017 30.03 847 25.01 0.3 32.6 72 -4.1 24.7
21:10 1017 30.03 847 25.01 0.3 32.5 72 -4.3 24.3
21:15 1017 30.03 847 25.01 0.3 32.5 73 -4.1 24.6
21:20 1017 30.03 847 25.01 -0.1 31.8 75 -4.1 24.7
21:25 1017 30.03 846 24.98 -0.5 31.1 77 -4.1 24.6
21:30 1017 30.03 846 24.98 -0.7 30.7 77 -4.3 24.2
21:35 1017 30.03 846 24.98 -0.8 30.5 77 -4.3 24.3
21:40 1017 30.03 846 24.98 -0.9 30.5 77 -4.4 24.1
21:45 1017 30.03 846 24.98 -0.3 31.4 74 -4.4 24.1
21:50 1017 30.03 846 24.98 -0.2 31.6 75 -4.2 24.5
21:55 1017 30.03 846 24.98 -0.2 31.6 76 -4 24.9
22:00 1017 30.03 846 24.98 -0.4 31.3 77 -3.9 24.9
22:05 1017 30.03 846 24.98 -0.5 31.1 78 -3.9 24.9
22:10 1017 30.03 846 24.98 -0.5 31.1 79 -3.7 25.3
22:15 1017 30.03 846 24.98 -0.5 31.2 77 -4.1 24.7
22:20 1017 30.03 846 24.98 -0.3 31.4 76 -4.1 24.6
22:25 1017 30.03 846 24.98 -0.2 31.6 76 -3.9 24.9
22:30 1017 30.03 846 24.98 -0.2 31.7 75 -4 24.8
22:35 1017 30.03 846 24.98 -0.1 31.9 75 -3.9 25
22:40 1017 30.03 846 24.98 -0 32 72 -4.5 23.9
22:45 1017 30.03 846 24.98 0.2 32.3 73 -4.1 24.6
22:50 1017 30.03 846 24.98 0.2 32.3 73 -4.1 24.5
22:55 1017 30.03 846 24.98 0.2 32.4 72 -4.3 24.3
23:00 1017 30.03 846 24.98 0.4 32.7 69 -4.7 23.6
23:05 1017 30.03 846 24.98 0.7 33.3 67 -4.7 23.5
23:10 1017 30.03 846 24.98 1 33.8 65 -4.9 23.1
23:15 1017 30.03 846 24.98 1 33.9 70 -3.8 25.1
23:20 1017 30.03 846 24.98 0.6 33 73 -3.8 25.1
23:25 1017 30.03 846 24.98 0.5 32.8 70 -4.3 24.2
23:30 1017 30.03 846 24.98 0.6 33.1 72 -3.8 25.1
23:35 1017 30.03 846 24.98 0.4 32.8 73 -3.9 25.1
23:40 1017 30.03 846 24.98 0.4 32.7 73 -4 24.8
23:45 1017 30.03 846 24.98 0.4 32.7 70 -4.4 24
23:50 1017 30.03 846 24.98 0.5 32.8 71 -4.2 24.4
23:55 1017 30.03 846 24.98 0.5 32.8 72 -4.1 24.6
24:00 1017 30.03 846 24.98 0.3 32.6 71 -4.4 24.1